createdAt,value
2016-09-16T00:03:28.567Z,23.80
2016-09-16T00:08:25.204Z,23.83
2016-09-16T00:13:21.927Z,23.76
2016-09-16T00:18:18.626Z,23.78
2016-09-16T00:23:15.266Z,23.71
2016-09-16T00:28:11.833Z,23.71
2016-09-16T00:33:08.404Z,23.71
2016-09-16T00:38:05.137Z,23.68
2016-09-16T00:43:01.649Z,23.68
2016-09-16T00:47:59.053Z,23.66
2016-09-16T00:52:55.718Z,23.59
2016-09-16T00:57:52.300Z,23.61
2016-09-16T01:02:48.920Z,23.58
2016-09-16T01:07:45.610Z,23.47
2016-09-16T01:12:42.144Z,23.37
2016-09-16T01:17:38.858Z,23.34
2016-09-16T01:22:35.457Z,23.21
2016-09-16T01:27:32.133Z,23.13
2016-09-16T01:32:28.839Z,22.90
2016-09-16T01:37:25.377Z,23.02
2016-09-16T01:42:21.979Z,23.00
2016-09-16T01:47:18.585Z,23.05
2016-09-16T01:52:15.399Z,22.98
2016-09-16T01:57:12.099Z,22.93
2016-09-16T02:02:08.818Z,22.88
2016-09-16T02:07:05.449Z,22.66
2016-09-16T02:12:02.021Z,22.57
2016-09-16T02:16:58.629Z,22.62
2016-09-16T02:21:55.692Z,22.62
2016-09-16T02:26:52.590Z,22.59
2016-09-16T02:31:49.213Z,22.57
2016-09-16T02:36:45.856Z,22.48
2016-09-16T02:41:42.497Z,22.45
2016-09-16T02:46:41.533Z,22.47
2016-09-16T02:51:37.404Z,22.55
2016-09-16T02:56:34.318Z,22.35
2016-09-16T03:01:30.973Z,22.29
2016-09-16T03:06:27.670Z,22.18
2016-09-16T03:11:24.322Z,22.17
2016-09-16T03:16:21.068Z,22.11
2016-09-16T03:21:17.904Z,22.14
2016-09-16T03:26:14.582Z,22.13
2016-09-16T03:31:12.219Z,22.13
2016-09-16T03:36:08.571Z,21.99
2016-09-16T03:41:05.220Z,21.93
2016-09-16T03:46:01.854Z,21.79
2016-09-16T03:50:58.264Z,21.80
2016-09-16T03:55:54.974Z,21.82
2016-09-16T04:00:51.428Z,21.76
2016-09-16T04:05:48.277Z,21.75
2016-09-16T04:10:45.262Z,21.66
2016-09-16T04:15:41.473Z,21.79
2016-09-16T04:20:38.415Z,21.79
2016-09-16T04:25:35.036Z,21.73
2016-09-16T04:30:32.048Z,21.55
2016-09-16T04:35:28.604Z,21.54
2016-09-16T04:40:25.241Z,21.48
2016-09-16T04:45:21.870Z,21.45
2016-09-16T04:50:18.678Z,21.52
2016-09-16T04:55:15.329Z,21.57
2016-09-16T05:00:11.956Z,21.50
2016-09-16T05:05:09.023Z,21.46
2016-09-16T05:10:05.300Z,21.51
2016-09-16T05:15:02.341Z,21.45
2016-09-16T05:19:58.830Z,21.51
2016-09-16T05:24:55.603Z,21.52
2016-09-16T05:29:52.175Z,21.51
2016-09-16T05:34:48.744Z,21.54
2016-09-16T05:39:45.273Z,21.45
2016-09-16T05:44:42.307Z,21.51
2016-09-16T05:49:38.941Z,21.50
2016-09-16T05:54:35.637Z,21.46
2016-09-16T05:59:32.835Z,21.51
2016-09-16T06:04:29.770Z,21.45
2016-09-16T06:09:26.425Z,21.51
2016-09-16T06:14:22.926Z,21.70
2016-09-16T06:19:19.514Z,21.77
2016-09-16T06:24:16.202Z,21.72
2016-09-16T06:29:12.851Z,21.77
2016-09-16T06:34:09.518Z,21.77
2016-09-16T06:39:06.555Z,22.17
2016-09-16T06:44:03.265Z,22.51
2016-09-16T06:48:59.899Z,22.51
2016-09-16T06:53:56.664Z,22.50
2016-09-16T06:58:53.310Z,22.55
2016-09-16T07:03:50.309Z,22.83
2016-09-16T07:08:47.149Z,22.93
2016-09-16T07:13:43.808Z,23.03
2016-09-16T07:18:40.356Z,23.08
2016-09-16T07:23:37.615Z,23.24
2016-09-16T07:28:34.361Z,23.36
2016-09-16T07:33:31.159Z,23.50
2016-09-16T07:38:28.276Z,23.59
2016-09-16T07:43:24.923Z,23.74
2016-09-16T07:48:21.408Z,23.80
2016-09-16T07:53:18.599Z,23.95
2016-09-16T07:58:15.308Z,23.95
2016-09-16T08:03:12.045Z,24.32
2016-09-16T08:08:08.736Z,24.36
2016-09-16T08:13:05.592Z,24.40
2016-09-16T08:18:02.311Z,24.24
2016-09-16T08:22:59.440Z,24.16
2016-09-16T08:27:56.212Z,24.20
2016-09-16T08:32:52.954Z,24.21
2016-09-16T08:37:49.709Z,24.30
2016-09-16T08:42:46.346Z,24.40
2016-09-16T08:47:43.072Z,24.38
2016-09-16T08:52:39.722Z,24.36
2016-09-16T08:57:36.461Z,24.23
2016-09-16T09:02:33.189Z,24.18
2016-09-16T09:07:29.818Z,24.11
2016-09-16T09:12:26.683Z,24.18
2016-09-16T09:17:23.387Z,24.10
2016-09-16T09:22:20.258Z,24.13
2016-09-16T09:27:17.201Z,24.42
2016-09-16T09:32:14.023Z,24.70
2016-09-16T09:37:11.029Z,24.50
2016-09-16T09:42:07.614Z,24.29
2016-09-16T09:47:04.340Z,24.16
2016-09-16T09:52:01.039Z,24.03
2016-09-16T09:56:57.986Z,24.14
2016-09-16T10:01:54.668Z,24.21
2016-09-16T10:06:51.705Z,24.24
2016-09-16T10:11:48.736Z,24.24
2016-09-16T10:16:45.585Z,24.24
2016-09-16T10:21:42.037Z,24.33
2016-09-16T10:26:38.803Z,24.20
2016-09-16T10:31:35.441Z,24.38
2016-09-16T10:36:32.368Z,24.36
2016-09-16T10:41:29.090Z,24.26
2016-09-16T10:46:25.647Z,24.06
2016-09-16T10:51:22.366Z,24.16
2016-09-16T10:56:19.097Z,24.18
2016-09-16T11:01:17.104Z,24.24
2016-09-16T11:06:13.419Z,24.20
2016-09-16T11:11:10.338Z,24.24
2016-09-16T11:16:07.075Z,24.23
2016-09-16T11:21:03.892Z,24.26
2016-09-16T11:26:00.929Z,24.66
2016-09-16T11:30:57.752Z,24.78
2016-09-16T11:35:54.643Z,24.77
2016-09-16T11:40:51.331Z,24.58
2016-09-16T11:45:48.175Z,24.51
2016-09-16T11:50:44.906Z,24.76
2016-09-16T11:55:41.640Z,25.08
2016-09-16T12:00:38.357Z,24.95
2016-09-16T12:05:35.013Z,25.08
2016-09-16T12:10:31.525Z,24.99
2016-09-16T12:15:28.178Z,24.89
2016-09-16T12:20:24.794Z,24.91
2016-09-16T12:25:21.808Z,24.86
2016-09-16T12:30:19.075Z,24.76
2016-09-16T12:35:15.795Z,24.61
2016-09-16T12:40:12.346Z,24.42
2016-09-16T12:45:08.977Z,24.43
2016-09-16T12:50:05.471Z,24.36
2016-09-16T12:55:02.179Z,24.24
2016-09-16T12:59:58.709Z,24.20
2016-09-16T13:04:55.590Z,24.21
2016-09-16T13:09:55.093Z,24.28
2016-09-16T13:14:51.647Z,24.39
2016-09-16T13:19:48.288Z,24.32
2016-09-16T13:24:44.908Z,24.36
2016-09-16T13:29:41.524Z,24.39
2016-09-16T13:34:41.277Z,24.30
2016-09-16T13:39:37.578Z,24.18
2016-09-16T13:44:34.377Z,24.23
2016-09-16T13:49:30.966Z,24.39
2016-09-16T13:54:27.655Z,24.45
2016-09-16T13:59:24.241Z,24.43
2016-09-16T14:04:20.967Z,24.51
2016-09-16T14:09:17.704Z,24.53
2016-09-16T14:14:14.477Z,24.51
2016-09-16T14:19:11.033Z,24.48
2016-09-16T14:24:07.637Z,24.23
2016-09-16T14:29:04.563Z,24.28
2016-09-16T14:34:01.180Z,24.11
2016-09-16T14:38:57.818Z,24.32
2016-09-16T14:43:54.577Z,24.21
2016-09-16T14:48:51.138Z,24.17
2016-09-16T14:53:48.149Z,24.14
2016-09-16T14:58:44.710Z,24.17
2016-09-16T15:03:41.474Z,24.13
2016-09-16T15:08:37.983Z,24.06
2016-09-16T15:13:34.476Z,24.06
2016-09-16T15:18:31.105Z,24.02
2016-09-16T15:23:27.716Z,23.91
2016-09-16T15:28:24.498Z,23.88
2016-09-16T15:33:21.710Z,24.05
2016-09-16T15:38:18.250Z,24.01
2016-09-16T15:43:14.816Z,24.17
2016-09-16T15:48:14.015Z,24.24
2016-09-16T15:53:10.000Z,24.53
2016-09-16T15:58:07.237Z,24.58
2016-09-16T16:03:04.149Z,24.77
2016-09-16T16:08:00.967Z,24.92
2016-09-16T16:12:58.194Z,24.99
2016-09-16T16:17:55.009Z,25.03
2016-09-16T16:22:51.607Z,24.98
2016-09-16T16:27:48.252Z,24.92
2016-09-16T16:32:44.794Z,24.74
2016-09-16T16:37:42.145Z,24.47
2016-09-16T16:42:38.544Z,24.30
2016-09-16T16:47:35.198Z,24.06
2016-09-16T16:52:32.354Z,23.81
2016-09-16T16:57:28.767Z,23.73
2016-09-16T17:02:25.696Z,23.54
2016-09-16T17:07:22.637Z,23.51
2016-09-16T17:12:19.240Z,23.40
2016-09-16T17:17:16.166Z,23.28
2016-09-16T17:22:12.727Z,23.23
2016-09-16T17:27:09.231Z,23.09
2016-09-16T17:32:05.712Z,23.02
2016-09-16T17:37:02.426Z,22.98
2016-09-16T17:41:58.886Z,23.00
2016-09-16T17:46:55.614Z,22.96
2016-09-16T17:51:52.226Z,22.81
2016-09-16T17:56:48.920Z,22.87
2016-09-16T18:01:45.567Z,22.83
2016-09-16T18:06:44.786Z,22.94
2016-09-16T18:11:40.865Z,22.87
2016-09-16T18:16:37.462Z,22.73
2016-09-16T18:21:34.059Z,22.62
2016-09-16T18:26:31.909Z,22.47
2016-09-16T18:31:28.322Z,22.50
2016-09-16T18:36:26.101Z,22.47
2016-09-16T18:41:24.054Z,22.39
2016-09-16T18:46:20.396Z,22.25
2016-09-16T18:51:17.537Z,22.41
2016-09-16T18:56:14.774Z,22.38
2016-09-16T19:01:13.099Z,22.32
2016-09-16T19:06:09.827Z,22.22
2016-09-16T19:11:07.122Z,22.17
2016-09-16T19:16:04.764Z,22.18
2016-09-16T19:21:01.612Z,22.13
2016-09-16T19:25:58.716Z,22.08
2016-09-16T19:30:55.995Z,21.99
2016-09-16T19:35:52.839Z,21.82
2016-09-16T19:40:49.401Z,21.83
2016-09-16T19:45:46.055Z,21.61
2016-09-16T19:50:42.632Z,21.46
2016-09-16T19:55:39.110Z,21.45
2016-09-16T20:00:35.704Z,21.37
2016-09-16T20:05:33.001Z,21.27
2016-09-16T20:10:32.201Z,21.18
2016-09-16T20:15:28.219Z,21.00
2016-09-16T20:20:24.812Z,20.99
2016-09-16T20:25:21.450Z,21.11
2016-09-16T20:30:18.094Z,21.27
2016-09-16T20:35:15.032Z,22.28
2016-09-16T20:40:12.305Z,22.65
2016-09-16T20:45:09.479Z,22.75
2016-09-16T20:50:06.050Z,22.94
2016-09-16T20:55:02.930Z,23.06
2016-09-16T20:59:59.442Z,23.10
2016-09-16T21:04:56.161Z,23.18
2016-09-16T21:09:52.757Z,23.20
2016-09-16T21:14:49.481Z,23.24
2016-09-16T21:19:46.580Z,23.20
2016-09-16T21:24:43.221Z,23.24
2016-09-16T21:29:40.000Z,23.24
2016-09-16T21:34:36.893Z,23.28
2016-09-16T21:39:33.623Z,23.28
2016-09-16T21:44:30.272Z,23.25
2016-09-16T21:49:27.016Z,23.28
2016-09-16T21:54:24.362Z,23.41
2016-09-16T21:59:21.144Z,23.44
2016-09-16T22:04:18.081Z,23.44
2016-09-16T22:09:14.680Z,23.40
2016-09-16T22:14:11.429Z,23.44
2016-09-16T22:19:10.788Z,23.31
2016-09-16T22:24:06.761Z,23.32
2016-09-16T22:29:03.809Z,23.31
2016-09-16T22:34:00.769Z,23.28
2016-09-16T22:38:58.839Z,23.25
2016-09-16T22:43:55.085Z,23.25
2016-09-16T22:48:51.645Z,23.25
2016-09-16T22:53:48.268Z,23.31
2016-09-16T22:58:44.841Z,23.27
2016-09-16T23:03:41.851Z,23.32
2016-09-16T23:08:40.909Z,23.37
2016-09-16T23:13:36.919Z,23.47
2016-09-16T23:18:33.682Z,23.25
2016-09-16T23:23:30.413Z,23.24
2016-09-16T23:28:27.426Z,23.05
2016-09-16T23:33:24.002Z,22.91
2016-09-16T23:38:20.687Z,22.93
2016-09-16T23:43:17.287Z,22.87
2016-09-16T23:48:14.023Z,22.90
2016-09-16T23:53:11.909Z,22.83
2016-09-16T23:58:08.035Z,22.88
